Time;durP1;ratioP1;P1;durP2;ratioP2;P2;SDS_P1;SDS_P2;PMS_P1;PMS_P2;Temp;Humidity;BMP_temperature;BMP_pressure;BME280_temperature;BME280_humidity;BME280_pressure;Samples;Min_cycle;Max_cycle;Signal;HPM_P1;HPM_P2
2023/08/17 00:00:22;;;;;;;6.63;2.37;;;;;;;25.67;57.03;98876.53;4828210;29;20614;-85
2023/08/17 00:02:48;;;;;;;5.80;2.23;;;;;;;25.81;56.39;98874.88;4844304;29;20228;-85
2023/08/17 00:05:15;;;;;;;4.13;2.20;;;;;;;25.84;55.97;98872.63;4844316;29;20185;-85
2023/08/17 00:07:42;;;;;;;4.70;2.00;;;;;;;25.87;55.67;98872.28;4827719;29;20593;-84
2023/08/17 00:10:09;;;;;;;6.80;2.30;;;;;;;25.92;55.44;98877.09;4843887;29;20192;-85
2023/08/17 00:12:35;;;;;;;7.00;2.53;;;;;;;25.99;55.31;98881.56;4827686;29;20208;-85
2023/08/17 00:15:02;;;;;;;4.00;2.20;;;;;;;26.00;54.87;98877.00;4827974;29;20196;-85
2023/08/17 00:17:27;;;;;;;11.47;2.10;;;;;;;26.04;54.62;98879.16;4843929;29;20236;-84
2023/08/17 00:19:54;;;;;;;4.97;2.40;;;;;;;26.04;54.43;98876.47;4843996;29;20628;-85
2023/08/17 00:22:21;;;;;;;5.23;2.27;;;;;;;26.13;54.08;98878.06;4844028;29;20229;-85
2023/08/17 00:24:47;;;;;;;4.13;2.03;;;;;;;26.13;54.02;98878.06;4827720;29;20225;-85
2023/08/17 00:27:14;;;;;;;6.87;2.33;;;;;;;26.13;53.94;98878.06;4843838;29;20227;-85
2023/08/17 00:29:40;;;;;;;5.50;2.33;;;;;;;26.18;53.69;98872.97;4843889;29;20174;-85
2023/08/17 00:32:07;;;;;;;4.90;2.07;;;;;;;26.22;53.65;98876.97;4827655;29;20209;-85
2023/08/17 00:34:34;;;;;;;5.33;2.00;;;;;;;26.23;53.04;98875.94;4843947;29;20181;-85
2023/08/17 00:37:01;;;;;;;7.10;2.43;;;;;;;26.26;53.27;98876.59;4843934;29;20213;-85
2023/08/17 00:39:28;;;;;;;3.53;1.50;;;;;;;26.27;53.04;98876.41;4844139;29;20188;-85
2023/08/17 00:41:53;;;;;;;4.67;1.97;;;;;;;26.33;52.91;98883.72;4843689;29;20185;-85
2023/08/17 00:44:19;;;;;;;10.10;1.83;;;;;;;26.36;52.52;98871.75;4843480;29;20199;-85
2023/08/17 00:46:44;;;;;;;3.83;1.63;;;;;;;26.34;52.96;98876.47;4827441;29;20261;-85
2023/08/17 00:49:12;;;;;;;6.03;2.23;;;;;;;26.29;53.03;98876.19;4843524;29;20555;-85
2023/08/17 00:51:39;;;;;;;8.00;2.90;;;;;;;26.21;52.93;98869.91;4827235;29;20205;-85
2023/08/17 00:54:06;;;;;;;5.40;2.60;;;;;;;26.15;52.97;98876.03;4843402;29;20186;-85
2023/08/17 00:56:33;;;;;;;4.80;2.47;;;;;;;26.09;53.19;98871.38;4827241;29;20555;-85
2023/08/17 00:59:00;;;;;;;5.60;1.80;;;;;;;26.02;53.55;98867.75;4827299;29;20203;-85
2023/08/17 01:01:26;;;;;;;7.10;2.43;;;;;;;26.08;53.21;98864.31;4843313;29;20240;-84
2023/08/17 01:03:53;;;;;;;8.70;1.90;;;;;;;26.10;53.03;98872.22;4843115;29;20196;-84
2023/08/17 01:06:20;;;;;;;7.03;1.70;;;;;;;26.11;52.68;98869.34;4843186;29;20195;-84
2023/08/17 01:08:47;;;;;;;5.50;1.87;;;;;;;26.13;52.53;98861.94;4843149;29;20630;-84
2023/08/17 01:11:52;;;;;;;7.97;2.17;;;;;;;26.20;52.41;98862.06;4843084;29;20203;-85
2023/08/17 01:14:30;;;;;;;3.63;1.77;;;;;;;26.18;52.25;98853.31;4843526;29;20229;-85
2023/08/17 01:17:11;;;;;;;9.10;1.80;;;;;;;26.15;52.17;98859.91;4843574;29;20181;-85
2023/08/17 01:19:38;;;;;;;6.50;2.00;;;;;;;26.22;52.16;98854.63;4826976;29;20195;-84
2023/08/17 01:22:08;;;;;;;7.87;2.07;;;;;;;26.24;52.04;98852.59;4842590;29;20276;-85
2023/08/17 01:24:34;;;;;;;6.37;2.20;;;;;;;26.20;51.94;98852.13;4842772;29;20197;-84
2023/08/17 01:27:01;;;;;;;5.10;2.50;;;;;;;26.17;51.68;98846.28;4842901;29;20193;-84
2023/08/17 01:29:27;;;;;;;4.93;1.80;;;;;;;26.18;51.56;98851.47;4842901;29;20204;-84
2023/08/17 01:32:10;;;;;;;6.27;1.83;;;;;;;26.16;51.74;98845.47;4842796;29;20239;-85
2023/08/17 01:34:47;;;;;;;9.50;2.40;;;;;;;26.15;51.62;98849.16;4842824;29;20189;-85
2023/08/17 01:37:18;;;;;;;6.73;1.50;;;;;;;26.13;51.75;98851.19;4843334;29;20252;-85
2023/08/17 01:39:49;;;;;;;3.20;1.63;;;;;;;26.11;51.83;98847.00;4842994;29;20173;-85
2023/08/17 01:42:16;;;;;;;5.43;1.53;;;;;;;26.08;51.83;98853.56;4843074;29;20169;-85
2023/08/17 01:44:43;;;;;;;6.00;2.00;;;;;;;26.06;52.06;98850.25;4826590;29;20185;-85
2023/08/17 01:47:09;;;;;;;7.17;2.00;;;;;;;25.99;52.40;98859.25;4842595;29;20181;-85
2023/08/17 01:49:36;;;;;;;6.00;2.17;;;;;;;25.93;52.92;98849.22;4826444;29;20217;-84
2023/08/17 01:52:02;;;;;;;5.47;1.90;;;;;;;25.83;52.92;98862.09;4826468;29;20220;-84
2023/08/17 01:54:29;;;;;;;7.80;2.50;;;;;;;25.70;53.26;98849.31;4842783;29;20189;-85
2023/08/17 01:56:55;;;;;;;3.97;1.90;;;;;;;25.71;52.50;98861.69;4826353;29;20181;-84
2023/08/17 01:59:21;;;;;;;6.50;1.80;;;;;;;25.67;52.74;98852.34;4842706;29;20196;-85
2023/08/17 02:01:48;;;;;;;6.00;2.00;;;;;;;25.61;52.48;98855.75;4839101;29;20193;-87
2023/08/17 02:04:16;;;;;;;3.33;1.40;;;;;;;25.60;52.71;98849.56;4825323;29;20203;-86
2023/08/17 02:06:41;;;;;;;8.73;2.50;;;;;;;25.48;52.72;98845.66;4834395;29;20212;-85
2023/08/17 02:09:06;;;;;;;4.27;1.63;;;;;;;25.31;53.45;98845.97;4821905;29;20192;-86
2023/08/17 02:11:33;;;;;;;3.90;2.07;;;;;;;25.34;53.47;98849.09;4837787;29;20232;-87
2023/08/17 02:14:00;;;;;;;6.40;2.67;;;;;;;25.29;53.92;98842.63;4838221;29;20300;-86
2023/08/17 02:16:26;;;;;;;8.20;1.70;;;;;;;25.25;54.14;98834.09;4819480;29;20267;-86
2023/08/17 02:18:52;;;;;;;5.90;2.03;;;;;;;25.25;54.02;98838.63;4841698;29;20259;-86
2023/08/17 02:21:17;;;;;;;3.37;1.70;;;;;;;25.19;54.23;98845.53;4840779;29;20280;-85
2023/08/17 02:23:43;;;;;;;4.93;2.13;;;;;;;25.11;54.58;98836.72;4827905;29;20277;-86
2023/08/17 02:26:10;;;;;;;10.37;2.43;;;;;;;25.03;54.92;98835.78;4842095;29;20632;-86
2023/08/17 02:28:35;;;;;;;4.53;1.70;;;;;;;25.15;54.38;98835.34;4842152;29;20189;-86
2023/08/17 02:31:02;;;;;;;5.07;2.23;;;;;;;25.26;54.21;98834.94;4842164;29;20188;-87
2023/08/17 02:33:29;;;;;;;4.73;2.37;;;;;;;25.42;53.61;98845.53;4826066;29;20570;-86
2023/08/17 02:35:54;;;;;;;5.33;1.93;;;;;;;25.47;52.96;98843.16;4845883;29;20640;-86
2023/08/17 02:38:20;;;;;;;7.30;2.77;;;;;;;25.52;53.26;98846.13;4839482;29;20226;-86
2023/08/17 02:40:45;;;;;;;9.47;2.10;;;;;;;25.57;53.20;98846.41;4827310;29;20192;-86
2023/08/17 02:43:12;;;;;;;4.67;1.83;;;;;;;25.61;52.90;98845.03;4845691;29;20244;-87
2023/08/17 02:45:39;;;;;;;5.93;2.07;;;;;;;25.67;52.45;98849.66;4829584;29;20193;-87
2023/08/17 02:48:05;;;;;;;5.70;2.03;;;;;;;25.70;52.20;98851.16;4829664;29;20247;-87
2023/08/17 02:50:32;;;;;;;5.37;1.93;;;;;;;25.74;52.10;98850.59;4845563;29;20205;-87
2023/08/17 02:52:59;;;;;;;6.03;2.07;;;;;;;25.77;51.95;98854.75;4845760;29;20223;-87
2023/08/17 02:55:26;;;;;;;10.93;2.33;;;;;;;25.80;51.75;98852.56;4845614;29;20173;-87
2023/08/17 02:57:51;;;;;;;5.17;2.10;;;;;;;25.74;51.86;98850.59;4829298;29;20204;-86
2023/08/17 03:00:18;;;;;;;5.93;2.27;;;;;;;25.67;52.47;98856.88;4829140;29;20545;-86
2023/08/17 03:02:44;;;;;;;5.13;2.37;;;;;;;25.71;52.69;98864.38;4845205;29;20578;-86
2023/08/17 03:05:11;;;;;;;4.97;2.40;;;;;;;25.75;52.77;98863.00;4845847;29;20184;-87
2023/08/17 03:07:36;;;;;;;6.83;2.40;;;;;;;25.71;53.33;98867.06;4829039;29;20197;-86
2023/08/17 03:10:02;;;;;;;4.87;2.43;;;;;;;25.40;54.33;98858.28;4845513;29;20192;-86
2023/08/17 03:12:27;;;;;;;8.40;2.63;;;;;;;25.41;54.81;98870.69;4845686;29;20225;-86
2023/08/17 03:14:53;;;;;;;3.63;2.20;;;;;;;25.44;54.54;98864.97;4845485;29;20186;-87
2023/08/17 03:17:18;;;;;;;4.37;2.00;;;;;;;25.47;54.68;98867.31;4828882;29;20185;-86
2023/08/17 03:19:44;;;;;;;5.90;2.30;;;;;;;25.33;55.24;98865.38;4845863;29;20181;-86
2023/08/17 03:22:09;;;;;;;5.90;2.40;;;;;;;25.25;55.22;98870.81;4845276;29;20232;-85
2023/08/17 03:24:36;;;;;;;6.97;2.40;;;;;;;25.26;55.06;98867.13;4828676;29;20193;-86
2023/08/17 03:27:02;;;;;;;5.03;1.90;;;;;;;25.33;55.12;98868.06;4828992;29;20270;-86
2023/08/17 03:29:29;;;;;;;5.60;2.63;;;;;;;25.36;54.74;98862.34;4844980;29;20193;-86
2023/08/17 03:31:56;;;;;;;7.03;2.63;;;;;;;25.37;54.88;98869.38;4828879;29;20638;-86
2023/08/17 03:34:21;;;;;;;7.83;2.43;;;;;;;25.30;55.03;98871.13;4828241;29;20193;-88
2023/08/17 03:36:50;;;;;;;4.60;2.00;;;;;;;25.17;55.17;98868.19;4828503;29;20195;-87
2023/08/17 03:39:15;;;;;;;10.27;2.20;;;;;;;25.05;55.82;98865.94;4827216;29;20199;-86
2023/08/17 03:41:42;;;;;;;4.73;2.40;;;;;;;25.11;55.53;98863.53;4841038;29;20186;-86
2023/08/17 03:44:09;;;;;;;3.57;1.80;;;;;;;25.18;55.18;98872.56;4828884;29;20507;-86
2023/08/17 03:46:36;;;;;;;4.00;2.17;;;;;;;25.19;55.42;98874.22;4844589;29;20237;-86
2023/08/17 03:49:03;;;;;;;5.77;2.10;;;;;;;25.18;55.20;98868.03;4843206;29;20636;-86
2023/08/17 03:51:30;;;;;;;10.40;3.20;;;;;;;25.24;54.82;98875.34;4828141;29;20631;-87
2023/08/17 03:53:57;;;;;;;5.30;2.23;;;;;;;25.24;54.25;98879.88;4844324;29;20185;-87
2023/08/17 03:56:24;;;;;;;6.03;2.17;;;;;;;25.17;54.52;98871.72;4828322;29;20242;-86
2023/08/17 03:58:50;;;;;;;4.03;2.33;;;;;;;25.19;54.33;98876.91;4844269;29;20189;-87
2023/08/17 04:01:17;;;;;;;7.77;2.07;;;;;;;25.11;53.96;98875.13;4844406;29;20272;-86
2023/08/17 04:03:44;;;;;;;5.93;2.23;;;;;;;25.17;53.87;98869.03;4844160;29;20181;-86
2023/08/17 04:06:10;;;;;;;3.53;2.40;;;;;;;25.10;53.85;98872.63;4844731;29;20189;-87
2023/08/17 04:08:37;;;;;;;5.87;2.23;;;;;;;25.20;53.78;98875.91;4844197;29;20329;-88
2023/08/17 04:11:05;;;;;;;4.20;2.10;;;;;;;25.20;53.32;98873.22;4844152;29;20201;-86
2023/08/17 04:13:32;;;;;;;6.13;2.17;;;;;;;25.23;52.74;98878.22;4844104;29;20580;-86
2023/08/17 04:15:59;;;;;;;5.83;2.20;;;;;;;25.30;52.72;98877.31;4841625;29;20189;-86
2023/08/17 04:18:24;;;;;;;9.77;2.30;;;;;;;25.41;52.19;98874.22;4842683;29;20192;-86
2023/08/17 04:20:50;;;;;;;7.10;1.70;;;;;;;25.44;51.66;98878.38;4826468;29;20193;-88
2023/08/17 04:23:15;;;;;;;4.03;2.03;;;;;;;25.39;51.96;98878.09;4827645;29;20228;-87
2023/08/17 04:25:44;;;;;;;5.23;2.23;;;;;;;25.43;50.80;98879.38;4844204;29;20640;-87
2023/08/17 04:28:10;;;;;;;6.40;2.00;;;;;;;25.50;50.59;98875.81;4825953;29;20201;-86
2023/08/17 04:30:38;;;;;;;6.40;1.90;;;;;;;25.56;50.41;98875.09;4809814;29;20185;-87
2023/08/17 04:33:04;;;;;;;5.90;2.20;;;;;;;25.49;50.58;98879.53;4825536;29;20240;-86
2023/08/17 04:35:31;;;;;;;5.17;2.33;;;;;;;25.53;49.99;98870.09;4839090;29;20660;-87
2023/08/17 04:37:58;;;;;;;3.47;1.73;;;;;;;25.55;50.60;98880.69;4843673;29;20185;-87
2023/08/17 04:40:23;;;;;;;5.47;2.57;;;;;;;25.59;49.88;98880.13;4841677;29;20208;-87
2023/08/17 04:42:50;;;;;;;4.00;1.87;;;;;;;25.79;49.95;98879.56;4827639;29;20605;-87
2023/08/17 04:45:16;;;;;;;2.13;1.40;;;;;;;25.83;49.62;98870.16;4827731;29;20193;-86
2023/08/17 04:47:41;;;;;;;5.93;2.00;;;;;;;25.93;48.82;98874.25;4843359;29;20632;-86
2023/08/17 04:50:07;;;;;;;4.10;1.80;;;;;;;25.87;49.23;98890.25;4840240;29;20253;-83
2023/08/17 04:52:34;;;;;;;4.17;1.53;;;;;;;26.01;48.80;98881.38;4834543;29;20201;-84
2023/08/17 04:55:00;;;;;;;6.43;1.90;;;;;;;26.08;48.68;98875.06;4843471;29;20181;-84
2023/08/17 04:57:28;;;;;;;7.37;1.77;;;;;;;26.17;48.62;98878.53;4843129;29;20189;-84
2023/08/17 04:59:54;;;;;;;6.30;1.67;;;;;;;26.35;48.31;98881.69;4843208;29;20185;-84
2023/08/17 05:02:21;;;;;;;4.20;1.70;;;;;;;26.59;47.86;98889.44;4843381;29;20181;-84
2023/08/17 05:04:47;;;;;;;7.50;2.13;;;;;;;26.78;47.73;98880.78;4842113;29;20185;-84
2023/08/17 05:07:12;;;;;;;5.60;2.00;;;;;;;26.95;46.90;98894.00;4834206;29;20265;-84
2023/08/17 05:09:39;;;;;;;4.27;1.73;;;;;;;27.03;46.68;98892.03;4839613;29;20683;-84
2023/08/17 05:12:05;;;;;;;5.23;1.83;;;;;;;27.12;46.95;98890.06;4825626;29;20217;-85
2023/08/17 05:14:30;;;;;;;3.97;1.63;;;;;;;27.27;46.69;98888.97;4824177;29;20217;-85
2023/08/17 05:16:57;;;;;;;3.93;1.80;;;;;;;27.34;46.60;98883.63;4842481;29;20212;-85
2023/08/17 05:19:24;;;;;;;4.47;2.23;;;;;;;27.47;46.08;98889.16;4843042;29;20192;-85
2023/08/17 05:21:51;;;;;;;6.90;2.03;;;;;;;27.56;46.35;98890.72;4830431;29;20193;-84
2023/08/17 05:24:17;;;;;;;5.10;1.83;;;;;;;27.64;45.89;98895.97;4808653;29;20193;-85
2023/08/17 05:26:44;;;;;;;4.83;1.60;;;;;;;27.68;46.50;98880.22;4841671;29;20193;-85
2023/08/17 05:29:11;;;;;;;5.00;2.47;;;;;;;27.73;46.65;98886.69;4842877;29;20589;-85
2023/08/17 05:31:36;;;;;;;2.80;1.50;;;;;;;27.71;46.42;98882.53;4839061;29;20229;-84
2023/08/17 05:34:02;;;;;;;7.30;2.33;;;;;;;27.59;47.03;98873.34;4840623;29;20189;-85
2023/08/17 05:36:29;;;;;;;5.17;1.60;;;;;;;27.61;46.86;98882.03;4842208;29;20185;-84
2023/08/17 05:38:55;;;;;;;4.78;2.08;;;;;;;27.89;46.82;98877.47;4842072;29;20271;-84
2023/08/17 05:41:22;;;;;;;7.65;1.90;;;;;;;28.08;45.88;98873.28;4842005;29;20617;-85
2023/08/17 05:43:48;;;;;;;3.67;1.63;;;;;;;28.09;45.71;98875.81;4842095;29;20237;-85
2023/08/17 05:46:14;;;;;;;4.32;1.63;;;;;;;28.16;45.78;98867.75;4826493;29;20232;-85
2023/08/17 05:48:41;;;;;;;5.50;1.85;;;;;;;28.21;46.17;98867.97;4824602;29;20253;-85
2023/08/17 05:51:06;;;;;;;7.50;2.17;;;;;;;28.26;45.44;98874.44;4829193;29;20192;-85
2023/08/17 05:53:33;;;;;;;5.63;2.17;;;;;;;28.49;45.68;98874.13;4842132;29;20227;-85
2023/08/17 05:55:59;;;;;;;6.93;2.17;;;;;;;28.70;44.57;98865.94;4842125;29;20336;-85
2023/08/17 05:58:25;;;;;;;4.18;1.80;;;;;;;28.76;44.78;98865.13;4841571;29;20207;-85
2023/08/17 06:00:51;;;;;;;6.05;1.50;;;;;;;28.68;44.48;98868.00;4841562;29;20189;-85
2023/08/17 06:03:17;;;;;;;6.95;1.88;;;;;;;28.83;45.69;98865.97;4841582;29;20722;-85
2023/08/17 06:05:43;;;;;;;6.93;1.92;;;;;;;28.75;44.57;98866.16;4842021;29;20200;-87
2023/08/17 06:08:09;;;;;;;4.15;2.10;;;;;;;28.68;44.81;98872.56;4822808;29;20189;-86
2023/08/17 06:10:35;;;;;;;2.83;1.48;;;;;;;28.84;44.21;98883.00;4824134;29;20189;-86
2023/08/17 06:13:00;;;;;;;5.75;1.77;;;;;;;28.99;44.36;98881.78;4840073;29;20212;-85
2023/08/17 06:15:27;;;;;;;4.03;1.38;;;;;;;29.23;44.56;98877.72;4826495;29;20196;-86
2023/08/17 06:17:53;;;;;;;6.13;1.77;;;;;;;29.43;43.60;98886.66;4825747;29;20204;-86
2023/08/17 06:20:20;;;;;;;5.53;1.90;;;;;;;29.69;43.17;98881.25;4840617;29;20196;-86
2023/08/17 06:22:48;;;;;;;3.90;1.67;;;;;;;29.69;42.01;98886.66;4841489;29;20283;-86
2023/08/17 06:25:14;;;;;;;5.95;1.58;;;;;;;29.74;42.06;98886.88;4841750;29;20547;-87
2023/08/17 06:27:43;;;;;;;3.80;1.85;;;;;;;29.76;41.68;98887.50;4841600;29;20197;-86
2023/08/17 06:30:10;;;;;;;4.93;1.60;;;;;;;30.05;41.55;98886.25;4841850;29;20181;-85
2023/08/17 06:32:37;;;;;;;3.80;1.70;;;;;;;29.92;41.13;98883.59;4823085;29;20209;-87
2023/08/17 06:35:02;;;;;;;5.45;2.13;;;;;;;30.03;41.45;98890.22;4824543;29;20289;-85
2023/08/17 06:37:29;;;;;;;6.65;2.10;;;;;;;30.63;40.55;98880.91;4841664;29;20228;-86
2023/08/17 06:39:54;;;;;;;2.83;1.63;;;;;;;30.81;39.74;98879.16;4824564;29;20288;-86
2023/08/17 06:42:21;;;;;;;6.18;1.92;;;;;;;30.66;39.66;98878.59;4825625;29;20328;-87
2023/08/17 06:44:47;;;;;;;7.35;1.77;;;;;;;30.74;39.79;98878.34;4841713;29;20542;-87
2023/08/17 06:47:13;;;;;;;2.80;1.70;;;;;;;31.11;40.05;98884.00;4841376;29;20647;-86
2023/08/17 06:49:40;;;;;;;14.32;2.20;;;;;;;31.06;39.57;98881.94;4841346;29;20325;-87
2023/08/17 06:52:07;;;;;;;7.47;2.08;;;;;;;31.37;39.07;98881.94;4840996;29;20201;-86
2023/08/17 06:54:33;;;;;;;5.25;1.90;;;;;;;31.77;38.74;98878.94;4841579;29;20189;-86
2023/08/17 06:57:00;;;;;;;5.32;2.17;;;;;;;32.04;38.19;98881.22;4841087;29;20208;-86
2023/08/17 06:59:27;;;;;;;3.55;1.75;;;;;;;32.01;37.16;98872.69;4842343;29;20181;-86
2023/08/17 07:01:52;;;;;;;3.72;1.65;;;;;;;31.91;37.78;98881.31;4833012;29;20276;-89
2023/08/17 07:04:19;;;;;;;3.60;1.83;;;;;;;31.90;37.75;98878.81;4840172;29;20727;-89
2023/08/17 07:06:45;;;;;;;5.55;1.95;;;;;;;31.93;37.47;98884.63;4825523;29;20200;-89
2023/08/17 07:09:12;;;;;;;4.60;1.80;;;;;;;32.20;37.57;98875.22;4810907;29;20571;-88
2023/08/17 07:11:39;;;;;;;3.45;1.40;;;;;;;32.63;37.09;98879.72;4822276;29;20186;-89
2023/08/17 07:14:08;;;;;;;2.60;1.30;;;;;;;32.67;36.03;98875.53;4834530;29;20216;-87
2023/08/17 07:16:35;;;;;;;2.67;1.50;;;;;;;32.83;36.33;98866.75;4841700;29;20181;-89
2023/08/17 07:19:02;;;;;;;2.67;1.20;;;;;;;33.09;36.01;98873.72;4841629;29;20189;-90
2023/08/17 07:21:29;;;;;;;5.93;1.70;;;;;;;33.42;36.43;98879.47;4817890;29;20194;-90
2023/08/17 07:23:55;;;;;;;6.82;1.90;;;;;;;33.59;36.52;98869.63;4826403;29;20198;-89
2023/08/17 07:26:22;;;;;;;5.72;2.00;;;;;;;33.68;35.18;98872.81;4833879;29;20201;-91
2023/08/17 07:28:49;;;;;;;7.25;1.88;;;;;;;33.77;34.46;98866.81;4844785;29;20573;-89
2023/08/17 07:31:16;;;;;;;3.47;1.63;;;;;;;34.17;34.71;98861.50;4838400;29;20202;-89
2023/08/17 07:33:43;;;;;;;4.30;1.92;;;;;;;34.01;34.53;98868.44;4826255;29;20205;-89
2023/08/17 07:36:09;;;;;;;4.90;1.80;;;;;;;34.22;33.21;98864.31;4810223;29;20182;-91
2023/08/17 07:38:36;;;;;;;2.92;1.30;;;;;;;34.32;32.82;98860.97;4826285;29;20178;-90
2023/08/17 07:41:03;;;;;;;3.30;1.60;;;;;;;34.46;33.22;98848.78;4810261;29;20651;-89
2023/08/17 07:43:28;;;;;;;3.85;1.73;;;;;;;34.36;33.08;98865.69;4810297;29;20561;-89
2023/08/17 07:45:56;;;;;;;3.13;1.40;;;;;;;34.40;33.16;98853.28;4810127;29;20186;-90
2023/08/17 07:48:23;;;;;;;6.47;1.80;;;;;;;34.67;33.26;98860.94;4802728;29;20189;-89
2023/08/17 07:50:50;;;;;;;6.00;2.05;;;;;;;34.82;32.85;98855.78;4843750;29;20185;-89
2023/08/17 07:53:18;;;;;;;5.15;1.67;;;;;;;34.90;33.78;98849.94;4828159;29;20576;-91
2023/08/17 07:55:45;;;;;;;5.72;2.30;;;;;;;35.30;31.51;98856.13;4844267;29;20609;-87
2023/08/17 07:58:11;;;;;;;4.25;1.90;;;;;;;35.27;31.56;98850.38;4844273;29;20181;-87
2023/08/17 08:00:37;;;;;;;4.93;1.67;;;;;;;35.08;31.64;98857.94;4844213;29;20185;-87
2023/08/17 08:03:04;;;;;;;2.10;1.17;;;;;;;35.48;31.38;98850.47;4811141;29;20197;-88
2023/08/17 08:05:29;;;;;;;5.15;1.52;;;;;;;35.85;29.77;98848.06;4844641;29;20772;-87
2023/08/17 08:07:56;;;;;;;2.75;1.45;;;;;;;35.97;30.32;98853.44;4842022;29;20205;-87
2023/08/17 08:10:23;;;;;;;4.70;1.40;;;;;;;35.90;30.24;98844.59;4843714;29;20181;-87
2023/08/17 08:12:50;;;;;;;6.88;2.28;;;;;;;36.11;30.44;98846.56;4842739;29;20296;-87
2023/08/17 08:15:16;;;;;;;2.47;1.42;;;;;;;36.22;30.58;98840.16;4843729;29;20192;-87
2023/08/17 08:17:42;;;;;;;3.65;1.95;;;;;;;36.28;29.48;98836.41;4843668;29;20257;-87
2023/08/17 08:20:09;;;;;;;3.60;1.42;;;;;;;36.43;29.52;98835.81;4843507;29;20185;-88
2023/08/17 08:22:35;;;;;;;2.45;1.40;;;;;;;36.12;29.67;98829.09;4842143;29;20201;-87
2023/08/17 08:25:02;;;;;;;4.53;1.58;;;;;;;36.20;30.57;98829.50;4843670;29;20223;-88
2023/08/17 08:27:28;;;;;;;8.85;1.80;;;;;;;36.40;29.79;98828.13;4842673;29;20648;-87
2023/08/17 08:29:53;;;;;;;2.75;1.30;;;;;;;36.42;29.12;98823.22;4838821;29;20220;-86
2023/08/17 08:32:20;;;;;;;5.00;0.90;;;;;;;36.67;29.61;98829.84;4842585;29;20213;-87
2023/08/17 08:34:47;;;;;;;2.15;1.25;;;;;;;36.78;28.91;98830.78;4843840;29;20188;-87
2023/08/17 08:37:12;;;;;;;4.78;1.50;;;;;;;36.87;29.71;98827.31;4843583;29;20193;-87
2023/08/17 08:39:54;;;;;;;13.40;2.13;;;;;;;37.34;28.65;98829.44;4843589;29;20181;-87
2023/08/17 08:42:21;;;;;;;2.92;1.40;;;;;;;37.51;27.48;98825.50;4827494;29;20209;-87
2023/08/17 08:44:50;;;;;;;3.58;1.67;;;;;;;37.73;27.73;98817.19;4843366;29;20203;-88
2023/08/17 08:47:17;;;;;;;5.05;2.00;;;;;;;37.10;28.67;98817.19;4827430;29;20627;-87
2023/08/17 08:50:02;;;;;;;3.08;0.98;;;;;;;37.20;27.96;98812.63;4827575;29;20196;-87
2023/08/17 08:52:34;;;;;;;4.97;2.35;;;;;;;37.39;27.49;98816.63;4843308;29;20265;-87
2023/08/17 08:55:12;;;;;;;4.72;2.10;;;;;;;37.62;26.75;98804.53;4843323;29;20181;-87
2023/08/17 08:57:41;;;;;;;2.70;1.13;;;;;;;37.59;27.19;98805.03;4842989;29;20611;-88
2023/08/17 09:00:09;;;;;;;3.25;1.40;;;;;;;37.48;25.37;98803.31;4843103;29;20193;-87
2023/08/17 09:02:36;;;;;;;2.45;0.90;;;;;;;37.22;25.24;98806.91;4843009;29;20189;-87
2023/08/17 09:05:06;;;;;;;4.68;0.98;;;;;;;37.38;25.85;98803.22;4843106;29;20627;-86
2023/08/17 09:07:33;;;;;;;3.85;1.08;;;;;;;37.25;25.22;98787.25;4826839;29;20632;-87
2023/08/17 09:09:59;;;;;;;2.50;0.90;;;;;;;37.46;25.88;98794.56;4842913;29;20544;-87
2023/08/17 09:12:26;;;;;;;2.88;1.15;;;;;;;37.42;25.56;98787.97;4842946;29;20216;-86
2023/08/17 09:14:53;;;;;;;4.03;1.10;;;;;;;37.00;27.49;98796.06;4842584;29;20189;-87
2023/08/17 09:17:27;;;;;;;1.67;0.80;;;;;;;37.33;25.52;98792.22;4826869;29;20220;-86
2023/08/17 09:19:54;;;;;;;3.33;1.38;;;;;;;37.46;24.39;98783.63;4842948;29;20196;-86
2023/08/17 09:22:42;;;;;;;4.53;0.80;;;;;;;37.45;25.44;98779.22;4842480;29;20240;-87
2023/08/17 09:25:22;;;;;;;3.80;0.90;;;;;;;37.16;25.35;98786.88;4842587;29;20640;-87
2023/08/17 09:27:47;;;;;;;3.72;0.93;;;;;;;36.42;26.35;98785.81;4837772;29;20196;-85
2023/08/17 09:30:13;;;;;;;1.80;0.90;;;;;;;36.88;25.83;98782.50;4809513;29;20197;-85
2023/08/17 09:32:41;;;;;;;5.00;1.15;;;;;;;37.08;26.16;98775.63;4834605;29;20217;-86
2023/08/17 09:35:07;;;;;;;5.15;0.93;;;;;;;37.15;25.71;98770.75;4811669;29;20196;-87
2023/08/17 09:37:34;;;;;;;6.88;0.93;;;;;;;37.64;23.71;98774.16;4842381;29;20189;-87
2023/08/17 09:40:01;;;;;;;3.63;1.25;;;;;;;37.22;24.79;98766.72;4826811;29;20199;-87
2023/08/17 09:42:28;;;;;;;1.30;0.77;;;;;;;37.51;24.66;98773.53;4842327;29;20200;-87
2023/08/17 09:45:00;;;;;;;1.02;0.52;;;;;;;37.89;23.54;98772.44;4826786;29;20196;-87
2023/08/17 09:47:26;;;;;;;3.33;1.00;;;;;;;37.94;24.58;98769.72;4826097;29;20181;-88
2023/08/17 09:49:54;;;;;;;5.65;0.90;;;;;;;38.16;23.97;98766.00;4842779;29;20261;-86
2023/08/17 09:52:24;;;;;;;2.13;0.80;;;;;;;38.31;23.95;98769.66;4826476;29;20292;-87
2023/08/17 09:54:52;;;;;;;1.50;0.90;;;;;;;38.50;23.63;98761.75;4842373;29;20180;-88
2023/08/17 09:57:19;;;;;;;6.90;1.23;;;;;;;38.42;24.93;98770.50;4842065;29;20257;-85
2023/08/17 09:59:46;;;;;;;3.22;1.20;;;;;;;38.37;24.14;98768.56;4842278;29;20213;-87
2023/08/17 10:02:19;;;;;;;7.38;1.77;;;;;;;38.40;23.77;98767.19;4840681;29;20221;-87
2023/08/17 10:04:51;;;;;;;2.63;1.20;;;;;;;38.71;23.97;98766.16;4842257;29;20173;-87
2023/08/17 10:07:19;;;;;;;2.60;1.00;;;;;;;38.22;24.97;98767.66;4822924;29;20200;-86
2023/08/17 10:10:02;;;;;;;3.90;1.23;;;;;;;38.47;24.42;98767.78;4841977;29;20199;-87
2023/08/17 10:12:36;;;;;;;2.58;0.95;;;;;;;38.17;24.84;98764.88;4842067;29;20200;-85
2023/08/17 10:15:08;;;;;;;4.20;1.33;;;;;;;38.08;24.97;98768.13;4841916;29;20189;-85
2023/08/17 10:18:12;;;;;;;2.08;0.90;;;;;;;37.94;25.46;98767.00;4841420;29;20189;-86
2023/08/17 10:20:42;;;;;;;3.15;1.40;;;;;;;38.49;24.76;98758.19;4839812;29;20652;-86
2023/08/17 10:23:17;;;;;;;2.83;1.20;;;;;;;38.21;25.64;98753.13;4825622;29;20208;-86
2023/08/17 10:25:44;;;;;;;3.17;1.30;;;;;;;38.39;25.80;98754.59;4841940;29;20260;-86
2023/08/17 10:28:10;;;;;;;3.15;1.20;;;;;;;38.63;25.48;98750.25;4826361;29;20204;-86
2023/08/17 10:30:41;;;;;;;3.08;1.55;;;;;;;38.90;25.12;98750.06;4841740;29;20220;-87
2023/08/17 10:33:09;;;;;;;3.95;0.95;;;;;;;38.26;25.49;98755.91;4825394;29;20251;-86
2023/08/17 10:35:38;;;;;;;1.42;0.80;;;;;;;38.90;24.58;98755.53;4826034;29;20201;-85
2023/08/17 10:38:05;;;;;;;3.65;1.42;;;;;;;38.71;25.18;98747.81;4841819;29;20208;-85
2023/08/17 10:40:41;;;;;;;2.35;1.10;;;;;;;38.21;25.74;98742.16;4824039;29;20189;-86
2023/08/17 10:43:06;;;;;;;2.58;1.00;;;;;;;38.68;26.26;98742.88;4825960;29;20188;-85
2023/08/17 10:45:36;;;;;;;2.78;1.00;;;;;;;39.02;24.53;98740.47;4825874;29;20196;-87
2023/08/17 10:48:10;;;;;;;3.03;1.30;;;;;;;39.11;25.55;98740.75;4825935;29;20189;-85
2023/08/17 10:50:39;;;;;;;5.28;1.88;;;;;;;38.92;24.88;98737.72;4825851;29;20193;-87
2023/08/17 10:53:09;;;;;;;4.07;1.35;;;;;;;38.50;25.58;98740.66;4841616;29;20245;-87
2023/08/17 10:55:44;;;;;;;5.72;1.30;;;;;;;38.11;26.74;98742.97;4843213;29;20185;-85
2023/08/17 10:58:11;;;;;;;3.55;1.48;;;;;;;38.50;27.07;98726.13;4843098;29;20204;-87
2023/08/17 11:00:38;;;;;;;3.15;1.30;;;;;;;39.30;26.39;98729.00;4841237;29;20189;-87
2023/08/17 11:03:10;;;;;;;2.40;1.30;;;;;;;39.23;26.04;98733.91;4835691;29;20200;-86
2023/08/17 11:05:42;;;;;;;5.82;1.65;;;;;;;39.63;25.96;98732.22;4828940;29;20193;-86
2023/08/17 11:08:20;;;;;;;2.40;1.23;;;;;;;39.75;25.58;98724.53;4844981;29;20181;-86
2023/08/17 11:11:13;;;;;;;3.17;1.25;;;;;;;40.01;25.14;98709.59;4845163;29;20189;-86
2023/08/17 11:13:41;;;;;;;3.50;0.95;;;;;;;39.74;24.85;98717.38;4828513;29;20224;-86
2023/08/17 11:16:10;;;;;;;2.65;1.30;;;;;;;39.88;24.59;98718.44;4844876;29;20192;-86
2023/08/17 11:18:35;;;;;;;2.67;1.30;;;;;;;39.93;24.84;98710.19;4828458;29;20193;-83
2023/08/17 11:21:06;;;;;;;3.97;1.27;;;;;;;39.56;24.84;98712.47;4844708;29;20185;-85
2023/08/17 11:23:35;;;;;;;2.20;1.15;;;;;;;38.92;25.70;98698.53;4824022;29;20667;-85
2023/08/17 11:26:15;;;;;;;3.42;1.20;;;;;;;39.47;25.48;98705.91;4852358;29;20193;-86
2023/08/17 11:32:54;;;;;;;2.17;1.08;;;;;;;39.96;24.07;98686.84;4785804;30;20226;-86
2023/08/17 11:35:22;;;;;;;3.78;1.33;;;;;;;40.29;24.24;98699.88;4843101;29;20212;-86
2023/08/17 11:37:50;;;;;;;3.97;1.30;;;;;;;39.78;25.82;98696.53;4842940;29;20666;-85
2023/08/17 11:40:17;;;;;;;3.15;1.10;;;;;;;39.91;24.21;98687.69;4844499;29;20283;-86